San Nicolas Island, California
Current Conditions -  °F | °C
As of 11:51 PM on Wednesday 17 Dec 2014 (Local Time) from KAVX Reporting Station
Few Clouds Few Clouds  
Wind Chill: 51°   Ceiling: Unl
Heat Index: 51°   Visibility: 10mi
Dew Point: 42°   Wind: 9mph
Humidity: 71%   Direction: 290°WNW
Pressure: 30.12"   Gusts: NA
Location:  33.25°N, 119.45°W
Report Text: KAVX 180751Z AUTO 29008KT 10SM FEW024 11/06 A3012 RMK AO2 SLP200 T01060056 401330089
Loading
Personal Weather Stations






























Interactive Weather Map New forecast layout! Learn more

10-Day Weather Forecast

Advertisements
Track Severe Weather on mobile